»·PEaware :: N92FC KEMT-KSAN

N92FC :: KEMT-KSAN

FLIGHT INFORMATION

Flight Status: Arrived
Operator: Privately registered:
United States
More flights under this callsign
Pilot: Walter H. (552)
Aircraft: BEECH AIRCRAFT A90-E90 KING AIR
(BE9L)
More flights by this aircraft type
Origin: KEMT El Monte
United States
Destination: KSAN San Diego Intl-Lindbergh
United States
More flights between these airports :: More routes between these airports
Route: +PDZ V186 HAILE V66 MZB
File this flight plan on PilotEdge
Remarks: ONTN12
Altitude:
(Current/Filed)
11,000ft
Speed:
(Current/Filed)
200kts
Departed: 18-Apr-18 12:24 PM
Arrived: 18-Apr-18 01:08 PM
Distance/Time
Traveled:
92nm/0:44
Distance/Time
To Go:
Arrived

Flight Plot

Page will automatically refresh every two minutes.


Map Options




Map Legend


Flown Route
Filed Route
Departure Airport
Arrival Airport
Navaid (VOR, NDB)
Fix

Horizontal Profiles

Position Reports

Time Latitude Longitude Heading Altitude Ground
Speed
18-Apr-18 12:10 34.088640 -118.032253 295 293ft 0kts
18-Apr-18 12:11 34.088640 -118.032253 295 293ft 0kts
18-Apr-18 12:12 34.088640 -118.032253 295 293ft 0kts
18-Apr-18 12:13 34.088640 -118.032253 295 293ft 0kts
18-Apr-18 12:14 34.088640 -118.032253 295 293ft 0kts
18-Apr-18 12:15 34.088640 -118.032253 295 293ft 0kts
18-Apr-18 12:16 34.088640 -118.032253 295 293ft 0kts
18-Apr-18 12:17 34.088640 -118.032253 295 293ft 0kts
18-Apr-18 12:18 34.088640 -118.032253 295 293ft 0kts
18-Apr-18 12:19 34.088640 -118.032253 295 293ft 0kts
18-Apr-18 12:20 34.088640 -118.032253 295 293ft 0kts
18-Apr-18 12:21 34.090694 -118.031579 345 295ft 0kts
18-Apr-18 12:22 34.090694 -118.031579 345 295ft 0kts
18-Apr-18 12:23 34.085779 -118.034926 205 286ft 98kts
18-Apr-18 12:24 34.058974 -118.044975 138 1745ft 121kts
18-Apr-18 12:25 34.054042 -118.004756 104 2988ft 146kts
18-Apr-18 12:26 34.042032 -117.952838 112 3645ft 162kts
18-Apr-18 12:27 34.027131 -117.901097 113 4868ft 165kts
18-Apr-18 12:28 34.011754 -117.848275 113 5947ft 172kts
18-Apr-18 12:29 33.993847 -117.787062 112 5988ft 208kts
18-Apr-18 12:30 33.974085 -117.719563 112 5980ft 217kts
18-Apr-18 12:31 33.953866 -117.650663 112 5976ft 220kts
18-Apr-18 12:32 33.933356 -117.580923 112 5970ft 222kts
18-Apr-18 12:33 33.904374 -117.519589 147 6135ft 205kts
18-Apr-18 12:34 33.861067 -117.482059 149 6927ft 186kts
18-Apr-18 12:35 33.819740 -117.447275 149 7737ft 178kts
18-Apr-18 12:36 33.779867 -117.413885 149 8548ft 172kts
18-Apr-18 12:37 33.741677 -117.381952 149 9344ft 169kts
18-Apr-18 12:38 33.704641 -117.351014 150 10132ft 165kts
18-Apr-18 12:39 33.667470 -117.319999 151 10912ft 163kts
18-Apr-18 12:40 33.626791 -117.286144 150 10965ft 190kts
18-Apr-18 12:41 33.582084 -117.248925 150 10966ft 198kts
18-Apr-18 12:42 33.536529 -117.211054 150 10976ft 200kts
18-Apr-18 12:43 33.490570 -117.172900 150 10986ft 201kts
18-Apr-18 12:44 33.439268 -117.153704 173 10997ft 195kts
18-Apr-18 12:45 33.386140 -117.142172 174 10999ft 195kts
18-Apr-18 12:46 33.333631 -117.125942 155 10832ft 206kts
18-Apr-18 12:47 33.282247 -117.091229 155 9837ft 216kts
18-Apr-18 12:48 33.230042 -117.056342 155 8845ft 219kts
18-Apr-18 12:49 33.176803 -117.020958 154 7839ft 219kts
18-Apr-18 12:50 33.124188 -116.985963 154 6829ft 214kts
18-Apr-18 12:51 33.072755 -116.951568 154 5977ft 206kts
18-Apr-18 12:52 33.026171 -116.919405 155 5963ft 186kts
18-Apr-18 12:53 32.982210 -116.888356 154 5962ft 182kts
18-Apr-18 12:54 32.936997 -116.856484 154 5963ft 202kts
18-Apr-18 12:55 32.887368 -116.822525 154 5965ft 208kts
18-Apr-18 12:56 32.836917 -116.788500 154 5965ft 208kts
18-Apr-18 12:57 32.782784 -116.791925 191 5965ft 199kts
18-Apr-18 12:58 32.728000 -116.802701 191 5897ft 203kts
18-Apr-18 12:59 32.695935 -116.853863 250 4912ft 197kts
18-Apr-18 13:00 32.681048 -116.905222 250 3778ft 132kts
18-Apr-18 13:01 32.675782 -116.944219 274 3783ft 127kts
18-Apr-18 13:02 32.684374 -116.987095 281 3782ft 136kts
18-Apr-18 13:03 32.694912 -117.030699 281 3786ft 138kts
18-Apr-18 13:04 32.706397 -117.074998 281 2932ft 141kts
18-Apr-18 13:05 32.716139 -117.118463 281 1429ft 129kts
18-Apr-18 13:06 32.725457 -117.156494 279 630ft 106kts
18-Apr-18 13:07 32.732674 -117.186427 288 15ft 36kts

Navigation Log

Ident Type
Flight plan parsing failed, navigation log unavailable